Time;durP1;ratioP1;P1;durP2;ratioP2;P2;SDS_P1;SDS_P2;PMS_P1;PMS_P2;Temp;Humidity;BMP_temperature;BMP_pressure;BME280_temperature;BME280_humidity;BME280_pressure;Samples;Min_cycle;Max_cycle;Signal;HPM_P1;HPM_P2
2022/10/07 00:01:15;;;;;;;54.70;51.40;;;;;;;13.48;100.00;97861.13;4995913;28;20215;-70
2022/10/07 00:03:40;;;;;;;29.60;27.30;;;;;;;13.56;100.00;97858.19;4995084;28;20180;-71
2022/10/07 00:06:10;;;;;;;12.70;11.47;;;;;;;13.55;100.00;97862.63;5011013;28;20238;-70
2022/10/07 00:08:36;;;;;;;14.63;13.47;;;;;;;13.39;100.00;97855.31;5014029;28;20543;-70
2022/10/07 00:11:16;;;;;;;15.20;13.87;;;;;;;13.44;100.00;97862.56;5014124;28;20191;-71
2022/10/07 00:13:43;;;;;;;14.97;13.77;;;;;;;13.37;100.00;97859.19;4995764;28;20176;-70
2022/10/07 00:16:14;;;;;;;13.83;12.63;;;;;;;13.33;100.00;97854.34;4994598;28;20194;-70
2022/10/07 00:18:40;;;;;;;8.27;6.73;;;;;;;13.47;100.00;97855.03;5011385;28;20184;-71
2022/10/07 00:21:08;;;;;;;13.87;10.70;;;;;;;13.41;100.00;97848.00;4992564;28;20246;-70
2022/10/07 00:23:34;;;;;;;30.67;28.37;;;;;;;13.38;100.00;97855.53;5012538;28;20183;-70
2022/10/07 00:26:02;;;;;;;42.77;40.17;;;;;;;13.51;100.00;97845.66;5013608;28;20182;-69
2022/10/07 00:28:28;;;;;;;73.07;68.80;;;;;;;13.61;100.00;97845.16;4996691;28;20274;-69
2022/10/07 00:31:07;;;;;;;69.53;65.30;;;;;;;13.58;100.00;97846.41;4999695;28;20183;-69
2022/10/07 00:33:35;;;;;;;47.47;44.53;;;;;;;13.40;100.00;97842.94;5013312;28;20183;-70
2022/10/07 00:36:04;;;;;;;60.10;56.20;;;;;;;13.68;100.00;97835.34;5013690;28;20237;-69
2022/10/07 00:38:30;;;;;;;52.80;49.40;;;;;;;13.64;100.00;97837.63;4978189;28;20188;-69
2022/10/07 00:40:55;;;;;;;18.80;17.37;;;;;;;13.68;100.00;97838.78;4997741;28;20216;-69
2022/10/07 00:43:31;;;;;;;15.70;14.43;;;;;;;13.44;100.00;97829.13;5002634;28;20278;-69
2022/10/07 00:46:03;;;;;;;10.97;10.13;;;;;;;13.46;100.00;97826.28;5000715;28;20233;-69
2022/10/07 00:48:31;;;;;;;11.17;10.17;;;;;;;13.25;100.00;97820.41;5010781;28;20654;-69
2022/10/07 00:50:59;;;;;;;19.70;18.30;;;;;;;13.40;100.00;97816.63;5000523;28;20195;-69
2022/10/07 00:53:29;;;;;;;15.47;14.23;;;;;;;13.60;100.00;97817.19;4994393;28;20184;-69
2022/10/07 00:56:00;;;;;;;11.37;10.13;;;;;;;13.58;100.00;97816.63;4970236;28;20180;-68
2022/10/07 00:58:27;;;;;;;10.70;9.73;;;;;;;13.53;100.00;97808.59;4994302;28;20179;-69
2022/10/07 01:00:52;;;;;;;6.77;6.07;;;;;;;13.41;100.00;97808.50;4988041;28;20294;-69
2022/10/07 01:03:18;;;;;;;17.47;16.03;;;;;;;13.31;100.00;97803.75;5012895;28;20262;-69
2022/10/07 01:05:43;;;;;;;63.30;59.40;;;;;;;13.26;100.00;97797.53;5012684;28;20222;-69
2022/10/07 01:08:08;;;;;;;81.17;76.67;;;;;;;13.52;100.00;97797.25;4981550;28;20238;-69
2022/10/07 01:10:50;;;;;;;70.07;66.00;;;;;;;13.52;100.00;97799.06;4994086;28;20191;-69
2022/10/07 01:13:31;;;;;;;69.17;65.13;;;;;;;13.40;100.00;97801.63;4994148;28;20536;-69
2022/10/07 01:16:15;;;;;;;43.20;39.90;;;;;;;13.61;100.00;97792.47;4993135;28;20195;-69
2022/10/07 01:18:48;;;;;;;11.43;10.63;;;;;;;13.63;100.00;97795.69;4994920;28;20315;-69
2022/10/07 01:21:35;;;;;;;10.97;8.23;;;;;;;13.40;100.00;97787.66;5013155;28;20210;-69
2022/10/07 01:24:29;;;;;;;8.27;7.63;;;;;;;13.23;100.00;97785.59;5008284;28;20183;-69
2022/10/07 01:27:02;;;;;;;7.00;6.33;;;;;;;13.14;100.00;97786.91;4992782;28;20529;-69
2022/10/07 01:29:38;;;;;;;13.30;12.17;;;;;;;13.24;100.00;97776.69;5006681;28;20175;-69
2022/10/07 01:32:06;;;;;;;8.37;7.57;;;;;;;13.24;100.00;97783.78;4993628;28;20187;-70
2022/10/07 01:34:35;;;;;;;10.07;9.20;;;;;;;13.27;100.00;97780.69;4994489;28;20679;-69
2022/10/07 01:37:03;;;;;;;16.53;13.67;;;;;;;13.09;100.00;97778.84;5010933;28;20195;-69
2022/10/07 01:39:33;;;;;;;15.93;14.63;;;;;;;12.93;100.00;97780.19;5012847;28;20532;-69
2022/10/07 01:41:59;;;;;;;17.03;15.63;;;;;;;13.02;100.00;97777.28;5012630;28;20190;-69
2022/10/07 01:44:28;;;;;;;10.97;9.97;;;;;;;12.99;100.00;97767.97;5001450;28;20211;-68
2022/10/07 01:46:53;;;;;;;9.73;8.87;;;;;;;12.90;100.00;97774.56;5000581;28;20911;-71
2022/10/07 01:49:19;;;;;;;8.83;8.03;;;;;;;12.45;100.00;97760.78;5012211;28;20190;-69
2022/10/07 01:51:48;;;;;;;9.50;8.70;;;;;;;12.61;100.00;97757.59;5011995;28;20544;-69
2022/10/07 01:54:32;;;;;;;13.83;12.70;;;;;;;12.79;100.00;97754.22;4999082;28;20366;-68
2022/10/07 01:57:17;;;;;;;15.57;14.33;;;;;;;12.79;100.00;97760.28;4986479;28;20188;-68
2022/10/07 01:59:52;;;;;;;14.73;13.47;;;;;;;12.82;100.00;97751.16;4994816;28;20192;-70
2022/10/07 02:02:28;;;;;;;17.33;15.83;;;;;;;12.98;100.00;97744.53;5009304;28;20171;-69
2022/10/07 02:05:02;;;;;;;18.37;17.10;;;;;;;13.02;100.00;97748.34;4994405;28;20167;-68
2022/10/07 02:07:45;;;;;;;19.30;17.73;;;;;;;13.26;100.00;97748.28;4993430;28;20195;-68
2022/10/07 02:10:28;;;;;;;16.17;14.97;;;;;;;13.09;100.00;97752.53;4993457;28;20297;-69
2022/10/07 02:13:08;;;;;;;20.17;18.77;;;;;;;12.94;100.00;97752.03;4995788;28;20184;-68
2022/10/07 02:16:08;;;;;;;15.97;14.47;;;;;;;13.01;100.00;97744.09;5004801;28;20192;-70
2022/10/07 02:18:35;;;;;;;12.37;11.30;;;;;;;12.93;100.00;97741.75;4992379;28;20204;-69
2022/10/07 02:21:04;;;;;;;12.47;11.33;;;;;;;13.02;100.00;97740.44;5012253;28;20786;-69
2022/10/07 02:23:33;;;;;;;10.37;9.57;;;;;;;12.93;100.00;97740.72;5004294;28;20218;-69
2022/10/07 02:26:01;;;;;;;12.53;11.33;;;;;;;13.07;100.00;97735.31;5011634;28;20705;-69
2022/10/07 02:28:28;;;;;;;12.13;10.87;;;;;;;12.68;100.00;97732.06;5011903;28;20693;-69
2022/10/07 02:30:58;;;;;;;14.47;13.27;;;;;;;12.97;100.00;97727.94;4998117;28;20552;-69
2022/10/07 02:33:26;;;;;;;19.43;17.73;;;;;;;13.06;100.00;97728.44;5004702;28;20188;-69
2022/10/07 02:35:56;;;;;;;19.37;17.90;;;;;;;13.02;100.00;97714.94;4994495;28;20184;-69
2022/10/07 02:38:22;;;;;;;18.47;17.20;;;;;;;13.21;100.00;97711.28;5003601;28;20172;-69
2022/10/07 02:41:31;;;;;;;13.67;12.40;;;;;;;13.19;100.00;97721.25;4996843;28;20553;-70
2022/10/07 02:44:24;;;;;;;12.03;11.03;;;;;;;13.27;100.00;97713.03;5011785;28;20178;-71
2022/10/07 02:47:20;;;;;;;11.60;10.60;;;;;;;13.09;100.00;97713.03;5001081;28;20235;-69
2022/10/07 02:49:51;;;;;;;14.93;13.63;;;;;;;12.85;100.00;97716.53;4989123;28;20224;-69
2022/10/07 02:52:19;;;;;;;23.73;22.33;;;;;;;12.93;100.00;97713.59;5012545;28;20637;-69
2022/10/07 02:54:53;;;;;;;41.57;38.87;;;;;;;13.00;100.00;97713.53;5015596;28;20277;-69
2022/10/07 02:57:20;;;;;;;45.07;42.03;;;;;;;12.89;100.00;97709.78;4999779;28;20447;-69
2022/10/07 02:59:48;;;;;;;50.53;47.53;;;;;;;12.89;100.00;97713.22;4993223;28;20203;-69
2022/10/07 03:02:20;;;;;;;49.80;46.73;;;;;;;13.22;100.00;97709.47;5001892;28;20326;-69
2022/10/07 03:04:47;;;;;;;52.67;49.57;;;;;;;13.06;100.00;97702.13;5015439;28;20176;-69
2022/10/07 03:07:12;;;;;;;53.27;50.03;;;;;;;12.96;100.00;97697.38;5015310;28;20183;-70
2022/10/07 03:09:39;;;;;;;54.70;51.30;;;;;;;12.88;100.00;97695.03;5014813;28;20241;-69
2022/10/07 03:12:04;;;;;;;49.83;46.33;;;;;;;12.89;100.00;97699.28;5009797;28;20191;-69
2022/10/07 03:14:30;;;;;;;39.33;36.87;;;;;;;12.93;100.00;97693.34;4995970;28;20188;-70
2022/10/07 03:16:55;;;;;;;30.60;28.40;;;;;;;12.90;100.00;97700.88;4997242;28;20188;-69
2022/10/07 03:19:21;;;;;;;28.77;26.87;;;;;;;12.83;100.00;97695.69;4999287;28;20207;-69
2022/10/07 03:21:46;;;;;;;27.97;26.17;;;;;;;12.88;100.00;97687.13;5007633;28;20212;-69
2022/10/07 03:24:11;;;;;;;30.33;28.33;;;;;;;13.02;100.00;97685.97;4996120;28;20544;-69
2022/10/07 03:26:37;;;;;;;23.03;21.43;;;;;;;13.07;100.00;97694.03;4995723;28;20271;-69
2022/10/07 03:29:03;;;;;;;21.57;20.00;;;;;;;13.17;100.00;97683.00;4995537;28;20200;-69
2022/10/07 03:31:29;;;;;;;17.17;15.67;;;;;;;13.14;100.00;97684.25;4997909;28;20183;-71
2022/10/07 03:33:56;;;;;;;14.67;13.47;;;;;;;13.12;100.00;97683.66;4995205;28;20227;-69
2022/10/07 03:36:23;;;;;;;15.43;14.43;;;;;;;13.06;100.00;97676.63;5003206;28;20272;-69
2022/10/07 03:38:49;;;;;;;17.93;16.50;;;;;;;13.08;100.00;97673.78;4995796;28;20184;-69
2022/10/07 03:41:15;;;;;;;20.83;19.30;;;;;;;13.09;100.00;97675.38;4997925;28;20199;-69
2022/10/07 03:43:41;;;;;;;21.10;19.30;;;;;;;13.25;100.00;97678.25;5006557;28;20187;-69
2022/10/07 03:46:06;;;;;;;18.97;17.33;;;;;;;13.18;100.00;97674.88;5012914;28;20230;-69
2022/10/07 03:48:31;;;;;;;17.67;16.37;;;;;;;13.18;100.00;97674.06;5013539;28;20187;-69
2022/10/07 03:50:57;;;;;;;18.40;16.97;;;;;;;13.11;100.00;97670.69;5005889;28;20207;-69
2022/10/07 03:53:25;;;;;;;22.10;20.53;;;;;;;13.21;100.00;97673.63;4995697;28;20188;-69
2022/10/07 03:55:50;;;;;;;22.23;20.60;;;;;;;13.14;100.00;97670.28;5001114;28;20203;-69
2022/10/07 03:58:16;;;;;;;27.97;26.07;;;;;;;13.07;100.00;97669.53;5013555;28;20189;-69
2022/10/07 04:00:41;;;;;;;119.50;112.83;;;;;;;13.13;100.00;97669.47;4994957;28;20207;-69
2022/10/07 04:03:07;;;;;;;38.87;36.57;;;;;;;13.10;100.00;97663.81;4995263;28;20184;-69
2022/10/07 04:05:34;;;;;;;41.80;39.03;;;;;;;13.12;100.00;97661.78;4997158;28;20180;-69
2022/10/07 04:08:00;;;;;;;45.97;43.03;;;;;;;13.14;100.00;97659.75;5014090;28;20180;-69
2022/10/07 04:10:25;;;;;;;49.37;45.93;;;;;;;13.16;100.00;97658.50;5012668;28;20245;-69
2022/10/07 04:12:51;;;;;;;41.97;38.97;;;;;;;13.08;100.00;97656.16;4995108;28;20272;-69
2022/10/07 04:15:16;;;;;;;49.60;46.53;;;;;;;13.11;100.00;97652.25;4994717;28;20188;-69
2022/10/07 04:17:43;;;;;;;54.17;50.93;;;;;;;13.08;100.00;97658.78;5010747;28;20198;-70
2022/10/07 04:20:10;;;;;;;56.27;52.87;;;;;;;13.09;100.00;97652.50;4982257;28;20200;-69
2022/10/07 04:22:36;;;;;;;59.43;56.07;;;;;;;13.21;100.00;97650.75;4994784;28;20272;-69
2022/10/07 04:27:52;;;;;;;48.27;45.23;;;;;;;13.14;100.00;97652.66;4995889;28;20168;-69
2022/10/07 04:30:19;;;;;;;30.87;28.97;;;;;;;13.13;100.00;97648.44;4994412;28;20191;-69
2022/10/07 04:32:44;;;;;;;23.83;22.03;;;;;;;13.07;100.00;97637.94;4994311;28;20541;-69
2022/10/07 04:35:09;;;;;;;18.13;16.83;;;;;;;13.12;100.00;97643.38;4994737;28;20187;-69
2022/10/07 04:37:35;;;;;;;18.50;17.07;;;;;;;13.15;100.00;97641.09;5011910;28;20191;-69
2022/10/07 04:40:00;;;;;;;19.63;18.33;;;;;;;13.12;100.00;97633.66;4996227;28;20678;-69
2022/10/07 04:45:09;;;;;;;22.10;20.77;;;;;;;13.07;100.00;97628.22;4994151;28;20317;-69
2022/10/07 04:47:35;;;;;;;26.43;24.53;;;;;;;13.13;100.00;97626.56;5011425;28;20200;-69
2022/10/07 04:50:01;;;;;;;27.30;25.60;;;;;;;13.07;100.00;97632.69;5012440;28;20191;-70
2022/10/07 04:52:27;;;;;;;24.97;23.07;;;;;;;13.55;100.00;97617.66;5013469;28;20191;-68
2022/10/07 04:54:53;;;;;;;22.13;20.53;;;;;;;13.30;100.00;97609.13;5013722;28;20261;-68
2022/10/07 04:57:18;;;;;;;26.60;24.80;;;;;;;13.11;100.00;97623.31;5013758;28;20263;-70
2022/10/07 04:59:44;;;;;;;27.53;25.17;;;;;;;13.18;100.00;97624.06;4996949;28;20600;-69
2022/10/07 05:02:09;;;;;;;25.70;24.10;;;;;;;13.11;100.00;97623.31;5004534;28;20184;-69
2022/10/07 05:04:34;;;;;;;24.63;22.77;;;;;;;12.99;100.00;97617.16;4994546;28;20250;-69
2022/10/07 05:06:59;;;;;;;27.03;25.17;;;;;;;13.00;100.00;97618.78;4994108;28;20180;-68
2022/10/07 05:09:25;;;;;;;28.87;27.00;;;;;;;13.12;100.00;97619.69;4996197;28;20187;-68
2022/10/07 05:11:56;;;;;;;32.80;30.47;;;;;;;13.00;100.00;97618.78;5013415;28;20187;-68
2022/10/07 05:14:22;;;;;;;33.40;31.23;;;;;;;13.01;100.00;97613.31;5003041;28;20192;-68
2022/10/07 05:16:48;;;;;;;33.40;31.00;;;;;;;13.27;100.00;97607.72;4994037;28;20279;-68
2022/10/07 05:19:14;;;;;;;36.13;33.83;;;;;;;13.20;100.00;97616.75;4993371;28;20570;-69
2022/10/07 05:21:39;;;;;;;35.93;33.43;;;;;;;13.05;100.00;97617.09;4976270;28;20176;-68
2022/10/07 05:24:04;;;;;;;36.27;33.93;;;;;;;13.03;100.00;97618.34;5000628;28;20183;-69
2022/10/07 05:26:30;;;;;;;32.70;30.60;;;;;;;13.05;100.00;97617.09;5013085;28;20174;-68
2022/10/07 05:28:55;;;;;;;32.80;30.30;;;;;;;13.17;100.00;97618.00;5001913;28;20559;-69
2022/10/07 05:31:20;;;;;;;31.53;29.43;;;;;;;13.33;100.00;97613.94;5009151;28;20192;-68
2022/10/07 05:33:48;;;;;;;28.27;26.20;;;;;;;13.21;100.00;97613.88;4997850;28;20185;-70
2022/10/07 05:36:13;;;;;;;35.77;33.57;;;;;;;13.24;100.00;97604.75;5013094;28;20183;-69
2022/10/07 05:38:39;;;;;;;34.67;32.10;;;;;;;13.25;100.00;97606.38;5013069;28;20187;-70
2022/10/07 05:41:06;;;;;;;38.80;36.40;;;;;;;13.21;100.00;97605.19;5012739;28;20206;-70
2022/10/07 05:43:35;;;;;;;39.63;37.00;;;;;;;13.13;100.00;97613.41;5010369;28;20278;-71
2022/10/07 05:46:06;;;;;;;39.77;37.17;;;;;;;13.20;100.00;97603.59;4999149;28;20257;-71
2022/10/07 05:48:33;;;;;;;39.90;36.93;;;;;;;13.26;100.00;97606.13;5012640;28;20266;-70
2022/10/07 05:50:58;;;;;;;43.00;38.93;;;;;;;13.56;100.00;97605.31;5012730;28;20203;-70
2022/10/07 05:53:28;;;;;;;35.57;32.93;;;;;;;13.65;100.00;97606.59;5001769;28;20195;-70
2022/10/07 05:55:54;;;;;;;44.80;41.93;;;;;;;13.54;100.00;97610.00;4993358;28;20291;-70
2022/10/07 05:58:20;;;;;;;44.30;41.30;;;;;;;13.67;100.00;97601.91;4994467;28;20195;-71
2022/10/07 06:00:53;;;;;;;40.83;38.00;;;;;;;13.76;100.00;97603.19;4993163;28;20215;-71
2022/10/07 06:03:20;;;;;;;31.33;29.30;;;;;;;13.62;100.00;97601.78;4993165;28;20209;-70
2022/10/07 06:05:46;;;;;;;28.77;26.87;;;;;;;13.65;100.00;97604.75;4993056;28;20187;-70
2022/10/07 06:08:11;;;;;;;30.53;27.40;;;;;;;13.77;100.00;97602.16;5001150;28;20187;-70
2022/10/07 06:13:20;;;;;;;21.57;19.87;;;;;;;13.94;100.00;97597.00;4995615;28;20238;-71
2022/10/07 06:15:45;;;;;;;23.23;21.37;;;;;;;14.13;100.00;97594.06;4996702;28;20183;-70
2022/10/07 06:18:11;;;;;;;41.97;38.87;;;;;;;13.98;100.00;97587.66;4985664;28;20210;-71
2022/10/07 06:20:36;;;;;;;22.87;21.07;;;;;;;14.20;100.00;97593.97;5015986;28;20214;-70
2022/10/07 06:23:01;;;;;;;13.73;12.37;;;;;;;14.28;100.00;97592.78;5014461;28;20191;-71
2022/10/07 06:25:27;;;;;;;31.07;28.37;;;;;;;14.25;100.00;97595.91;5015935;28;20191;-71
2022/10/07 06:27:56;;;;;;;17.27;15.97;;;;;;;14.64;100.00;97592.56;5007414;28;20191;-70
2022/10/07 06:30:21;;;;;;;27.67;25.77;;;;;;;14.79;100.00;97594.72;4996853;28;20613;-71
2022/10/07 06:32:46;;;;;;;35.57;33.23;;;;;;;14.95;100.00;97592.16;5009848;28;20183;-71
2022/10/07 06:35:12;;;;;;;27.60;25.47;;;;;;;15.18;100.00;97599.19;4996460;28;20243;-71
2022/10/07 06:37:38;;;;;;;20.27;18.40;;;;;;;15.34;100.00;97603.72;4979345;28;20184;-71
2022/10/07 06:40:04;;;;;;;21.73;19.90;;;;;;;15.45;100.00;97598.59;4996862;28;20258;-70
2022/10/07 06:42:30;;;;;;;27.97;26.20;;;;;;;15.40;100.00;97599.31;5010895;28;20183;-72
2022/10/07 06:44:55;;;;;;;13.20;12.03;;;;;;;16.06;100.00;97603.91;4997664;28;20695;-71
2022/10/07 06:47:21;;;;;;;22.20;20.40;;;;;;;16.53;98.59;97600.88;4999793;28;20183;-71
2022/10/07 06:49:46;;;;;;;22.80;14.30;;;;;;;15.89;96.78;97592.53;5005432;28;20191;-70
2022/10/07 06:52:11;;;;;;;14.43;10.10;;;;;;;15.98;94.46;97593.75;4970694;28;20189;-71
2022/10/07 06:54:37;;;;;;;12.73;10.90;;;;;;;16.12;93.30;97602.94;4984382;28;20254;-71
2022/10/07 06:57:02;;;;;;;17.07;15.53;;;;;;;15.70;96.32;97607.03;5004766;28;20222;-71
2022/10/07 06:59:28;;;;;;;11.20;10.10;;;;;;;15.65;98.41;97599.00;4995401;28;20200;-71
2022/10/07 07:01:53;;;;;;;16.63;9.57;;;;;;;15.96;97.39;97603.75;4976845;28;20176;-71
2022/10/07 07:04:18;;;;;;;9.80;8.40;;;;;;;15.99;96.95;97599.84;5007555;28;20552;-69
2022/10/07 07:06:44;;;;;;;10.73;9.70;;;;;;;15.91;96.78;97605.50;4998069;28;20667;-71
2022/10/07 07:09:09;;;;;;;10.00;9.03;;;;;;;15.82;98.02;97601.66;4976568;28;20187;-70
2022/10/07 07:11:35;;;;;;;10.53;9.57;;;;;;;16.00;97.37;97604.84;4995682;28;20254;-71
2022/10/07 07:14:04;;;;;;;9.37;8.63;;;;;;;16.07;97.51;97600.22;4995766;28;20605;-70
2022/10/07 07:16:30;;;;;;;12.13;10.77;;;;;;;16.30;96.07;97604.53;4996190;28;20184;-70
2022/10/07 07:19:01;;;;;;;12.40;11.30;;;;;;;16.24;95.39;97602.84;4995260;28;20598;-70
2022/10/07 07:21:30;;;;;;;15.50;14.30;;;;;;;16.32;94.92;97596.34;4995852;28;20252;-70
2022/10/07 07:23:57;;;;;;;31.87;29.70;;;;;;;16.40;94.29;97596.72;4994479;28;20304;-71
2022/10/07 07:26:23;;;;;;;20.13;18.73;;;;;;;16.40;93.17;97598.56;4995630;28;20187;-71
2022/10/07 07:29:01;;;;;;;14.93;13.57;;;;;;;16.31;94.10;97600.03;4978004;28;20693;-70
2022/10/07 07:31:28;;;;;;;14.53;13.23;;;;;;;16.46;93.55;97600.25;4987988;28;20184;-70
2022/10/07 07:34:00;;;;;;;13.15;11.93;;;;;;;16.43;93.70;97600.75;4976102;28;20219;-70
2022/10/07 07:36:28;;;;;;;11.68;10.27;;;;;;;16.62;93.17;97599.44;4976381;28;20181;-70
2022/10/07 07:39:07;;;;;;;12.25;11.20;;;;;;;16.85;91.47;97591.28;4990646;28;20191;-72
2022/10/07 07:41:36;;;;;;;17.27;15.40;;;;;;;16.71;91.46;97592.69;4996365;28;20176;-71
2022/10/07 07:44:03;;;;;;;15.93;14.52;;;;;;;16.68;90.58;97597.66;4995026;28;20196;-71
2022/10/07 07:46:35;;;;;;;19.20;17.92;;;;;;;16.84;90.39;97596.81;5004677;28;20566;-70
2022/10/07 07:49:01;;;;;;;18.53;16.97;;;;;;;16.80;89.93;97591.22;5010451;28;20691;-70
2022/10/07 07:51:26;;;;;;;24.30;22.65;;;;;;;16.64;89.72;97594.72;4997354;28;20180;-70
2022/10/07 07:53:52;;;;;;;33.83;31.50;;;;;;;16.98;87.79;97595.41;4995136;28;20180;-70
2022/10/07 07:56:19;;;;;;;23.77;21.80;;;;;;;16.83;88.42;97588.06;4996501;28;20188;-71
2022/10/07 07:58:44;;;;;;;26.55;24.50;;;;;;;17.05;87.70;97594.16;5005570;28;20191;-71
2022/10/07 08:01:12;;;;;;;25.83;24.02;;;;;;;17.32;86.90;97594.19;5002137;28;20591;-71
2022/10/07 08:03:41;;;;;;;14.68;13.23;;;;;;;17.41;85.98;97582.09;4997076;28;20275;-71
2022/10/07 08:06:09;;;;;;;13.45;12.27;;;;;;;17.24;86.76;97593.81;5011255;28;20176;-71
2022/10/07 08:08:34;;;;;;;12.30;11.10;;;;;;;17.24;86.39;97588.53;5014233;28;20188;-71
2022/10/07 08:11:10;;;;;;;21.23;19.73;;;;;;;17.23;84.89;97589.56;5014236;28;20730;-70
2022/10/07 08:13:39;;;;;;;66.97;63.30;;;;;;;17.35;83.56;97569.84;5014286;28;20651;-69
2022/10/07 08:16:05;;;;;;;19.63;18.25;;;;;;;17.44;84.12;97572.84;4996661;28;20600;-70
2022/10/07 08:18:31;;;;;;;25.17;23.50;;;;;;;17.38;83.83;97572.00;4994365;28;20196;-71
2022/10/07 08:21:01;;;;;;;17.38;16.15;;;;;;;17.36;83.74;97575.94;5007423;28;20554;-71
2022/10/07 08:23:29;;;;;;;27.33;25.27;;;;;;;17.13;84.12;97582.31;5012147;28;20283;-70
2022/10/07 08:25:58;;;;;;;38.42;36.22;;;;;;;17.29;83.21;97575.34;5012155;28;20269;-70
2022/10/07 08:28:24;;;;;;;30.67;28.73;;;;;;;17.66;82.01;97576.28;4995430;28;20246;-71
2022/10/07 08:30:50;;;;;;;33.85;31.50;;;;;;;17.69;81.60;97572.28;5007186;28;20191;-70
2022/10/07 08:33:17;;;;;;;31.27;29.25;;;;;;;17.60;82.28;97571.16;5003885;28;20226;-72
2022/10/07 08:35:48;;;;;;;46.42;43.83;;;;;;;17.63;82.24;97568.81;4981896;28;20204;-71
2022/10/07 08:38:14;;;;;;;61.78;58.30;;;;;;;17.78;81.14;97576.06;4992681;28;20183;-70
2022/10/07 08:40:49;;;;;;;80.40;75.75;;;;;;;17.63;81.95;97571.44;5013118;28;20810;-71
2022/10/07 08:43:15;;;;;;;90.97;85.45;;;;;;;17.56;83.25;97564.72;5006308;28;20187;-71
2022/10/07 08:45:41;;;;;;;71.25;66.95;;;;;;;17.57;83.71;97559.16;4993554;28;20283;-71
2022/10/07 08:48:19;;;;;;;42.00;39.58;;;;;;;17.59;83.18;97561.56;4995874;28;20192;-71
2022/10/07 08:50:57;;;;;;;47.67;44.92;;;;;;;17.86;81.90;97555.22;5010114;28;20219;-70
2022/10/07 08:53:29;;;;;;;79.38;74.68;;;;;;;17.66;82.43;97551.59;4994062;28;20187;-71
2022/10/07 08:56:05;;;;;;;50.90;47.70;;;;;;;17.43;84.58;97550.84;4998607;28;20186;-71
2022/10/07 08:58:35;;;;;;;47.90;44.80;;;;;;;17.54;85.09;97556.22;4987997;28;20187;-72
2022/10/07 09:01:00;;;;;;;16.83;15.52;;;;;;;17.79;84.68;97559.91;4993485;28;20204;-71
2022/10/07 09:03:57;;;;;;;15.95;14.73;;;;;;;17.55;85.72;97549.88;4993125;28;20188;-71
2022/10/07 09:06:29;;;;;;;11.48;10.43;;;;;;;17.76;85.09;97546.38;5001678;28;20172;-71
2022/10/07 09:09:03;;;;;;;9.88;9.07;;;;;;;17.63;85.67;97542.28;5012684;28;20179;-71
2022/10/07 09:11:31;;;;;;;8.60;7.75;;;;;;;17.71;85.95;97549.78;5013131;28;20561;-70
2022/10/07 09:14:07;;;;;;;9.50;8.75;;;;;;;17.67;86.20;97539.91;4996646;28;20641;-71
2022/10/07 09:16:42;;;;;;;9.23;8.32;;;;;;;17.59;86.44;97541.16;5002181;28;20187;-71
2022/10/07 09:19:27;;;;;;;11.07;9.43;;;;;;;17.50;85.76;97547.19;4985319;28;20183;-71
2022/10/07 09:21:59;;;;;;;10.85;9.95;;;;;;;17.66;83.97;97538.34;5003439;28;20214;-71
2022/10/07 09:24:27;;;;;;;11.98;11.00;;;;;;;17.62;84.00;97537.22;5011873;28;20578;-70
2022/10/07 09:26:58;;;;;;;11.98;10.85;;;;;;;17.74;83.52;97536.00;5001076;28;20579;-71
2022/10/07 09:29:25;;;;;;;11.75;10.90;;;;;;;17.71;82.98;97528.59;4993237;28;20188;-72
2022/10/07 09:31:52;;;;;;;12.75;11.77;;;;;;;17.43;84.04;97531.50;4993876;28;20192;-71
2022/10/07 09:34:28;;;;;;;15.55;14.23;;;;;;;17.48;84.60;97528.88;4980497;28;20216;-70
2022/10/07 09:37:12;;;;;;;12.50;11.43;;;;;;;17.55;84.44;97524.19;5006690;28;20175;-71
2022/10/07 09:39:38;;;;;;;12.77;11.80;;;;;;;17.56;84.58;97527.59;4993508;28;20318;-71
2022/10/07 09:42:06;;;;;;;13.02;11.77;;;;;;;17.61;84.17;97525.06;5005856;28;20235;-71
2022/10/07 09:44:32;;;;;;;15.95;14.73;;;;;;;17.39;85.96;97520.56;4993095;28;20224;-70
2022/10/07 09:47:01;;;;;;;12.23;11.25;;;;;;;17.55;86.36;97523.38;4992891;28;20198;-70
2022/10/07 09:49:32;;;;;;;14.02;12.88;;;;;;;17.49;86.59;97513.78;4993921;28;20199;-70
2022/10/07 09:52:14;;;;;;;22.58;20.98;;;;;;;17.59;86.15;97522.63;4983837;28;20179;-70
2022/10/07 09:54:41;;;;;;;27.85;25.80;;;;;;;17.35;88.18;97522.13;5005354;28;20179;-71
2022/10/07 09:57:29;;;;;;;23.00;20.95;;;;;;;17.72;85.68;97516.13;4998086;28;20190;-69
2022/10/07 10:00:12;;;;;;;23.55;21.90;;;;;;;17.86;85.41;97517.28;4994060;28;20257;-70
2022/10/07 10:02:54;;;;;;;23.13;21.52;;;;;;;17.69;86.46;97506.81;4989901;28;20184;-71
2022/10/07 10:05:21;;;;;;;20.45;19.00;;;;;;;17.89;85.90;97508.03;4977181;28;20234;-71
2022/10/07 10:07:51;;;;;;;12.32;11.23;;;;;;;17.85;83.61;97513.81;4982693;28;20289;-71
2022/10/07 10:10:22;;;;;;;16.00;14.52;;;;;;;17.59;85.78;97511.22;4995285;28;20188;-70
2022/10/07 10:12:50;;;;;;;11.32;10.52;;;;;;;17.57;86.32;97505.34;4996735;28;20169;-71
2022/10/07 10:15:21;;;;;;;12.30;11.18;;;;;;;17.90;85.65;97506.94;5010222;28;20246;-71
2022/10/07 10:17:47;;;;;;;17.45;16.17;;;;;;;17.95;85.40;97502.47;5004984;28;20202;-72
2022/10/07 10:20:19;;;;;;;16.17;15.07;;;;;;;18.00;84.85;97499.84;5010308;28;20203;-71
2022/10/07 10:22:44;;;;;;;16.48;15.27;;;;;;;17.90;85.00;97497.13;5011786;28;20270;-69
2022/10/07 10:28:11;;;;;;;13.65;12.45;;;;;;;17.79;86.72;97490.97;5006982;28;20178;-70
2022/10/07 10:30:46;;;;;;;17.52;16.05;;;;;;;17.61;86.38;97491.34;4993133;28;20238;-70
2022/10/07 10:33:50;;;;;;;13.15;11.85;;;;;;;17.61;86.86;97488.72;4999108;28;20303;-70
2022/10/07 10:36:20;;;;;;;26.88;24.83;;;;;;;17.67;87.47;97485.03;4988353;28;20649;-73
2022/10/07 10:39:01;;;;;;;23.30;21.67;;;;;;;17.79;86.87;97482.22;5010508;28;20583;-71
2022/10/07 10:41:45;;;;;;;20.85;19.35;;;;;;;18.01;86.25;97474.91;5011473;28;20222;-70
2022/10/07 10:44:13;;;;;;;17.17;15.82;;;;;;;18.09;85.29;97476.31;4998180;28;20692;-73
2022/10/07 10:46:45;;;;;;;13.30;11.82;;;;;;;17.66;87.13;97469.41;4988045;28;20184;-71
2022/10/07 10:49:49;;;;;;;14.68;13.50;;;;;;;17.86;86.37;97465.03;4993052;28;20188;-71
2022/10/07 10:52:28;;;;;;;15.77;14.57;;;;;;;18.09;84.92;97466.50;4982611;28;20188;-71
2022/10/07 10:55:10;;;;;;;20.63;19.13;;;;;;;17.97;84.91;97462.44;5007028;28;20185;-71
2022/10/07 10:58:01;;;;;;;21.83;20.05;;;;;;;17.86;85.17;97458.94;5006783;28;20191;-71
2022/10/07 11:00:40;;;;;;;14.75;13.38;;;;;;;17.73;86.68;97451.41;4937045;28;20235;-71
2022/10/07 11:03:26;;;;;;;18.98;17.67;;;;;;;17.84;86.06;97461.03;4996142;28;20175;-71
2022/10/07 11:05:54;;;;;;;21.52;19.75;;;;;;;17.75;87.53;97454.63;5004933;28;20286;-72
2022/10/07 11:08:31;;;;;;;18.33;17.00;;;;;;;17.84;87.07;97453.06;4984476;28;20199;-72
2022/10/07 11:11:11;;;;;;;20.38;18.88;;;;;;;17.88;86.86;97443.56;4998782;28;20188;-71
2022/10/07 11:13:50;;;;;;;20.80;19.17;;;;;;;17.83;86.90;97443.53;5006938;28;20578;-72
2022/10/07 11:16:23;;;;;;;18.88;17.27;;;;;;;17.92;87.68;97434.03;4979451;28;20571;-72
2022/10/07 11:19:16;;;;;;;23.00;21.20;;;;;;;18.13;85.97;97435.72;4991900;28;20184;-73
2022/10/07 11:21:53;;;;;;;20.45;18.98;;;;;;;18.07;86.06;97434.09;5009860;28;20215;-73
2022/10/07 11:24:28;;;;;;;20.15;18.65;;;;;;;18.09;86.04;97426.69;5013194;28;20180;-71
2022/10/07 11:27:02;;;;;;;17.15;15.55;;;;;;;18.11;86.00;97424.56;4995849;28;20183;-71
2022/10/07 11:30:01;;;;;;;14.23;13.02;;;;;;;18.21;85.08;97421.19;5008979;28;20245;-71
2022/10/07 11:32:43;;;;;;;15.85;14.38;;;;;;;17.94;85.97;97418.66;4990443;28;20177;-71
2022/10/07 11:35:30;;;;;;;14.55;13.32;;;;;;;18.11;86.00;97408.63;4997544;28;20200;-72
2022/10/07 11:38:12;;;;;;;17.73;16.42;;;;;;;18.17;85.70;97404.94;4999406;28;20227;-72
2022/10/07 11:40:54;;;;;;;14.00;12.60;;;;;;;18.21;85.01;97410.56;4995500;28;20200;-72